createdAt,value
2017-11-06T00:00:28.009Z,5.60
2017-11-06T00:02:55.834Z,5.50
2017-11-06T00:05:23.256Z,5.50
2017-11-06T00:07:50.733Z,5.60
2017-11-06T00:10:18.186Z,5.60
2017-11-06T00:12:45.594Z,5.60
2017-11-06T00:15:13.368Z,5.60
2017-11-06T00:17:41.193Z,5.50
2017-11-06T00:20:08.620Z,5.50
2017-11-06T00:22:36.045Z,5.50
2017-11-06T00:25:03.869Z,5.50
2017-11-06T00:27:31.607Z,5.50
2017-11-06T00:29:59.046Z,5.50
2017-11-06T00:32:26.465Z,5.40
2017-11-06T00:34:54.289Z,5.30
2017-11-06T00:37:21.730Z,5.30
2017-11-06T00:39:49.158Z,5.40
2017-11-06T00:42:16.576Z,5.40
2017-11-06T00:44:44.005Z,5.50
2017-11-06T00:47:11.442Z,5.40
2017-11-06T00:49:38.866Z,5.30
2017-11-06T00:52:06.718Z,5.20
2017-11-06T00:54:34.532Z,5.20
2017-11-06T00:57:01.961Z,5.20
2017-11-06T00:59:29.409Z,5.20
2017-11-06T01:01:56.838Z,5.20
2017-11-06T01:04:24.265Z,5.20
2017-11-06T01:06:51.709Z,5.20
2017-11-06T01:09:19.137Z,5.10
2017-11-06T01:11:46.582Z,5.10
2017-11-06T01:14:14.013Z,5.10
2017-11-06T01:16:41.445Z,5.00
2017-11-06T01:19:08.880Z,5.00
2017-11-06T01:21:36.336Z,4.90
2017-11-06T01:24:03.756Z,5.00
2017-11-06T01:26:31.181Z,5.00
2017-11-06T01:28:58.621Z,5.00
2017-11-06T01:31:26.047Z,4.90
2017-11-06T01:33:53.489Z,4.90
2017-11-06T01:36:20.920Z,4.90
2017-11-06T01:38:48.755Z,4.90
2017-11-06T01:41:16.193Z,4.90
2017-11-06T01:43:43.630Z,4.80
2017-11-06T01:46:11.049Z,4.80
2017-11-06T01:48:39.166Z,4.80
2017-11-06T01:51:06.592Z,4.80
2017-11-06T01:53:34.013Z,4.80
2017-11-06T01:56:01.469Z,4.80
2017-11-06T01:58:29.300Z,4.70
2017-11-06T02:00:56.717Z,4.70
2017-11-06T02:03:24.160Z,4.70
2017-11-06T02:05:51.978Z,4.60
2017-11-06T02:08:19.406Z,4.60
2017-11-06T02:10:46.864Z,4.60
2017-11-06T02:13:14.294Z,4.60
2017-11-06T02:15:41.739Z,4.60
2017-11-06T02:18:09.605Z,4.60
2017-11-06T02:20:37.421Z,4.60
2017-11-06T02:23:04.845Z,4.60
2017-11-06T02:25:32.277Z,4.60
2017-11-06T02:28:00.493Z,4.50
2017-11-06T02:30:29.714Z,4.50
2017-11-06T02:32:57.143Z,4.50
2017-11-06T02:35:24.901Z,4.50
2017-11-06T02:37:52.338Z,4.60
2017-11-06T02:40:19.762Z,4.60
2017-11-06T02:42:47.617Z,4.50
2017-11-06T02:45:15.041Z,4.50
2017-11-06T02:47:42.484Z,4.50
2017-11-06T02:50:09.917Z,4.50
2017-11-06T02:52:37.591Z,4.50
2017-11-06T02:55:05.018Z,4.50
2017-11-06T02:57:32.863Z,4.40
2017-11-06T03:00:00.294Z,4.40
2017-11-06T03:02:27.725Z,4.40
2017-11-06T03:04:55.173Z,4.40
2017-11-06T03:07:22.605Z,4.40
2017-11-06T03:09:50.042Z,4.40
2017-11-06T03:12:17.864Z,4.40
2017-11-06T03:14:45.289Z,4.40
2017-11-06T03:17:12.742Z,4.40
2017-11-06T03:19:40.170Z,4.40
2017-11-06T03:22:07.985Z,4.40
2017-11-06T03:24:35.657Z,4.40
2017-11-06T03:27:03.096Z,4.40
2017-11-06T03:29:30.547Z,4.40
2017-11-06T03:31:58.009Z,4.40
2017-11-06T03:34:25.442Z,4.40
2017-11-06T03:36:52.891Z,4.40
2017-11-06T03:39:20.325Z,4.40
2017-11-06T03:41:48.145Z,4.40
2017-11-06T03:44:15.589Z,4.40
2017-11-06T03:46:43.040Z,4.30
2017-11-06T03:49:10.465Z,4.30
2017-11-06T03:51:38.301Z,4.30
2017-11-06T03:54:05.717Z,4.30
2017-11-06T03:56:33.153Z,4.30
2017-11-06T03:59:00.590Z,4.40
2017-11-06T04:01:28.441Z,4.40
2017-11-06T04:03:56.270Z,4.30
2017-11-06T04:06:23.705Z,4.30
2017-11-06T04:08:51.159Z,4.30
2017-11-06T04:11:18.589Z,4.30
2017-11-06T04:13:46.034Z,4.30
2017-11-06T04:16:13.864Z,4.30
2017-11-06T04:18:41.310Z,4.30
2017-11-06T04:21:09.673Z,4.20
2017-11-06T04:23:37.096Z,4.20
2017-11-06T04:26:04.533Z,4.20
2017-11-06T04:28:32.865Z,4.10
2017-11-06T04:31:00.305Z,4.10
2017-11-06T04:33:30.322Z,4.10
2017-11-06T04:35:57.756Z,4.10
2017-11-06T04:38:25.188Z,4.10
2017-11-06T04:40:53.016Z,4.10
2017-11-06T04:43:20.456Z,4.10
2017-11-06T04:45:47.880Z,4.10
2017-11-06T04:48:15.313Z,4.20
2017-11-06T04:50:43.537Z,4.20
2017-11-06T04:53:10.965Z,4.20
2017-11-06T04:55:38.389Z,4.10
2017-11-06T04:58:06.363Z,4.10
2017-11-06T05:00:33.778Z,4.10
2017-11-06T05:03:01.200Z,4.10
2017-11-06T05:05:28.635Z,4.10
2017-11-06T05:07:56.458Z,4.10
2017-11-06T05:10:23.885Z,4.10
2017-11-06T05:12:51.655Z,4.10
2017-11-06T05:15:19.082Z,4.10
2017-11-06T05:17:46.525Z,4.10
2017-11-06T05:20:14.349Z,4.10
2017-11-06T05:22:42.421Z,4.10
2017-11-06T05:25:09.805Z,4.10
2017-11-06T05:27:37.728Z,4.10
2017-11-06T05:30:05.155Z,4.10
2017-11-06T05:32:32.596Z,4.00
2017-11-06T05:35:00.697Z,4.00
2017-11-06T05:37:28.124Z,4.00
2017-11-06T05:39:55.552Z,4.00
2017-11-06T05:42:23.397Z,4.00
2017-11-06T05:44:50.830Z,4.00
2017-11-06T05:47:18.265Z,4.00
2017-11-06T05:49:45.693Z,4.00
2017-11-06T05:52:13.532Z,4.00
2017-11-06T05:54:40.960Z,4.00
2017-11-06T05:57:08.389Z,4.00
2017-11-06T05:59:36.170Z,4.00
2017-11-06T06:02:03.601Z,4.00
2017-11-06T06:04:31.038Z,4.00
2017-11-06T06:06:58.859Z,4.00
2017-11-06T06:09:26.409Z,4.00
2017-11-06T06:11:53.849Z,4.00
2017-11-06T06:14:21.281Z,4.00
2017-11-06T06:16:49.593Z,3.90
2017-11-06T06:19:17.030Z,3.90
2017-11-06T06:21:44.493Z,4.00
2017-11-06T06:24:11.921Z,3.90
2017-11-06T06:26:39.364Z,3.90
2017-11-06T06:29:07.185Z,3.90
2017-11-06T06:31:34.620Z,3.90
2017-11-06T06:34:02.101Z,3.90
2017-11-06T06:36:29.534Z,3.90
2017-11-06T06:38:57.106Z,3.90
2017-11-06T06:41:24.572Z,3.90
2017-11-06T06:43:51.994Z,4.00
2017-11-06T06:46:19.458Z,4.20
2017-11-06T06:48:47.069Z,4.20
2017-11-06T06:51:14.886Z,4.20
2017-11-06T06:53:42.413Z,4.20
2017-11-06T06:56:10.225Z,4.10
2017-11-06T06:58:37.654Z,4.20
2017-11-06T07:01:05.085Z,4.20
2017-11-06T07:03:32.733Z,4.30
2017-11-06T07:06:00.537Z,4.40
2017-11-06T07:08:27.965Z,4.40
2017-11-06T07:10:55.766Z,4.40
2017-11-06T07:13:23.177Z,4.40
2017-11-06T07:15:50.625Z,4.40
2017-11-06T07:18:18.465Z,4.60
2017-11-06T07:20:45.894Z,4.60
2017-11-06T07:23:13.313Z,4.70
2017-11-06T07:25:41.021Z,4.80
2017-11-06T07:28:08.461Z,4.80
2017-11-06T07:30:35.897Z,5.00
2017-11-06T07:33:03.354Z,5.40
2017-11-06T07:35:30.876Z,5.30
2017-11-06T07:37:58.690Z,5.00
2017-11-06T07:40:26.189Z,5.00
2017-11-06T07:42:54.030Z,5.00
2017-11-06T07:45:21.461Z,5.10
2017-11-06T07:47:48.910Z,5.20
2017-11-06T07:50:16.672Z,5.30
2017-11-06T07:52:44.104Z,5.40
2017-11-06T07:55:11.532Z,5.40
2017-11-06T07:57:39.376Z,5.70
2017-11-06T08:00:06.804Z,5.70
2017-11-06T08:02:34.557Z,5.90
2017-11-06T08:05:01.998Z,6.00
2017-11-06T08:07:29.430Z,6.30
2017-11-06T08:09:57.129Z,6.10
2017-11-06T08:12:24.598Z,6.00
2017-11-06T08:14:52.023Z,6.20
2017-11-06T08:17:20.285Z,6.40
2017-11-06T08:19:47.717Z,6.50
2017-11-06T08:22:16.658Z,6.90
2017-11-06T08:24:44.154Z,6.90
2017-11-06T08:27:11.590Z,6.90
2017-11-06T08:29:39.033Z,7.20
2017-11-06T08:32:06.771Z,7.10
2017-11-06T08:34:34.200Z,7.00
2017-11-06T08:37:02.037Z,7.40
2017-11-06T08:39:29.501Z,7.40
2017-11-06T08:41:57.361Z,7.60
2017-11-06T08:44:25.080Z,7.60
2017-11-06T08:46:52.519Z,7.60
2017-11-06T08:49:19.951Z,7.60
2017-11-06T08:51:48.597Z,8.20
2017-11-06T08:54:16.051Z,8.20
2017-11-06T08:56:43.485Z,8.70
2017-11-06T08:59:11.027Z,8.80
2017-11-06T09:01:38.448Z,8.80
2017-11-06T09:04:06.312Z,9.10
2017-11-06T09:06:34.155Z,9.90
2017-11-06T09:09:01.589Z,9.90
2017-11-06T09:11:29.009Z,9.80
2017-11-06T09:13:57.408Z,10.40
2017-11-06T09:16:24.837Z,10.00
2017-11-06T09:18:52.261Z,10.10
2017-11-06T09:21:20.701Z,10.90
2017-11-06T09:23:48.125Z,11.10
2017-11-06T09:26:15.569Z,11.70
2017-11-06T09:28:43.584Z,11.60
2017-11-06T09:31:11.022Z,11.60
2017-11-06T09:33:38.449Z,11.20
2017-11-06T09:36:06.269Z,10.40
2017-11-06T09:38:33.674Z,10.70
2017-11-06T09:41:01.152Z,11.00
2017-11-06T09:43:28.763Z,11.50
2017-11-06T09:45:56.596Z,11.90
2017-11-06T09:48:24.017Z,12.00
2017-11-06T09:50:51.475Z,12.10
2017-11-06T09:53:18.934Z,12.60
2017-11-06T09:55:46.388Z,12.60
2017-11-06T09:58:14.177Z,13.00
2017-11-06T10:00:41.626Z,13.20
2017-11-06T10:03:09.069Z,13.30
2017-11-06T10:05:36.705Z,13.50
2017-11-06T10:08:04.133Z,13.40
2017-11-06T10:10:31.976Z,13.10
2017-11-06T10:12:59.745Z,13.10
2017-11-06T10:15:27.222Z,13.70
2017-11-06T10:17:55.067Z,14.70
2017-11-06T10:20:23.537Z,14.70
2017-11-06T10:22:50.990Z,16.90
2017-11-06T10:25:18.421Z,19.10
2017-11-06T10:27:46.071Z,20.20
2017-11-06T10:30:13.502Z,18.90
2017-11-06T10:32:40.946Z,19.70
2017-11-06T10:35:08.835Z,20.40
2017-11-06T10:37:36.255Z,20.40
2017-11-06T10:40:04.098Z,21.00
2017-11-06T10:42:31.854Z,21.00
2017-11-06T10:44:59.297Z,20.80
2017-11-06T10:47:26.770Z,20.20
2017-11-06T10:49:54.240Z,20.70
2017-11-06T10:52:21.663Z,19.60
2017-11-06T10:54:50.019Z,21.40
2017-11-06T10:57:17.529Z,22.00
2017-11-06T10:59:44.979Z,22.40
2017-11-06T11:02:12.422Z,22.10
2017-11-06T11:04:40.866Z,22.40
2017-11-06T11:07:08.306Z,22.60
2017-11-06T11:09:35.767Z,22.80
2017-11-06T11:12:04.470Z,22.60
2017-11-06T11:14:31.893Z,22.50
2017-11-06T11:16:59.384Z,22.10
2017-11-06T11:19:27.748Z,22.50
2017-11-06T11:21:56.002Z,22.00
2017-11-06T11:24:24.366Z,22.80
2017-11-06T11:26:53.314Z,22.90
2017-11-06T11:29:23.001Z,23.40
2017-11-06T11:31:51.241Z,23.40
2017-11-06T11:34:19.063Z,23.80
2017-11-06T11:36:46.541Z,23.70
2017-11-06T11:39:14.023Z,24.00
2017-11-06T11:41:42.217Z,23.90
2017-11-06T11:44:09.718Z,23.90
2017-11-06T11:46:37.273Z,24.20
2017-11-06T11:49:04.729Z,24.20
2017-11-06T11:51:32.197Z,24.80
2017-11-06T11:54:00.472Z,23.00
2017-11-06T11:56:28.021Z,23.00
2017-11-06T11:58:55.494Z,23.80
2017-11-06T12:01:23.371Z,24.80
2017-11-06T12:03:51.232Z,24.80
2017-11-06T12:06:19.061Z,24.50
2017-11-06T12:08:52.689Z,24.60
2017-11-06T12:11:20.667Z,22.20
2017-11-06T12:13:48.499Z,22.80
2017-11-06T12:16:16.058Z,22.80
2017-11-06T12:18:43.512Z,24.10
2017-11-06T12:21:10.958Z,25.20
2017-11-06T12:23:38.438Z,25.60
2017-11-06T12:26:06.281Z,25.70
2017-11-06T12:28:33.722Z,25.70
2017-11-06T12:31:01.194Z,25.80
2017-11-06T12:33:29.450Z,25.80
2017-11-06T12:35:56.901Z,26.10
2017-11-06T12:38:24.338Z,26.10
2017-11-06T12:40:51.812Z,25.90
2017-11-06T12:43:19.258Z,22.30
2017-11-06T12:45:46.897Z,21.40
2017-11-06T12:48:14.326Z,22.20
2017-11-06T12:50:42.161Z,24.90
2017-11-06T12:53:09.637Z,24.90
2017-11-06T12:55:37.453Z,21.20
2017-11-06T12:58:04.918Z,21.20
2017-11-06T13:00:32.469Z,23.70
2017-11-06T13:02:59.918Z,24.00
2017-11-06T13:05:27.539Z,23.20
2017-11-06T13:07:55.385Z,19.10
2017-11-06T13:10:22.859Z,19.10
2017-11-06T13:12:50.798Z,16.70
2017-11-06T13:15:18.272Z,16.70
2017-11-06T13:17:45.713Z,15.70
2017-11-06T13:20:13.159Z,17.00
2017-11-06T13:22:40.611Z,19.50
2017-11-06T13:25:08.360Z,19.50
2017-11-06T13:27:35.801Z,18.20
2017-11-06T13:30:03.242Z,16.10
2017-11-06T13:32:30.726Z,15.10
2017-11-06T13:34:58.161Z,14.90
2017-11-06T13:37:25.624Z,15.50
2017-11-06T13:39:54.142Z,16.00
2017-11-06T13:42:22.179Z,15.30
2017-11-06T13:44:49.633Z,15.30
2017-11-06T13:47:17.104Z,14.60
2017-11-06T13:49:44.569Z,14.30
2017-11-06T13:52:12.013Z,14.40
2017-11-06T13:54:39.491Z,13.80
2017-11-06T13:57:07.326Z,14.10
2017-11-06T13:59:34.802Z,14.10
2017-11-06T14:02:02.269Z,14.10
2017-11-06T14:04:30.115Z,13.60
2017-11-06T14:06:57.871Z,13.60
2017-11-06T14:09:25.358Z,13.30
2017-11-06T14:11:53.194Z,11.10
2017-11-06T14:14:20.665Z,11.10
2017-11-06T14:16:48.102Z,11.10
2017-11-06T14:19:15.559Z,11.70
2017-11-06T14:21:43.019Z,11.70
2017-11-06T14:24:10.504Z,11.80
2017-11-06T14:26:37.960Z,12.10
2017-11-06T14:29:05.790Z,11.60
2017-11-06T14:31:33.264Z,11.60
2017-11-06T14:34:00.701Z,11.50
2017-11-06T14:36:28.145Z,11.30
2017-11-06T14:38:55.610Z,11.40
2017-11-06T14:41:23.046Z,10.80
2017-11-06T14:43:50.522Z,10.50
2017-11-06T14:46:17.960Z,10.20
2017-11-06T14:48:45.388Z,10.20
2017-11-06T14:51:12.816Z,10.20
2017-11-06T14:53:40.349Z,10.20
2017-11-06T14:56:09.237Z,10.20
2017-11-06T14:58:36.673Z,10.20
2017-11-06T15:01:04.150Z,10.40
2017-11-06T15:03:31.627Z,10.80
2017-11-06T15:05:59.460Z,10.20
2017-11-06T15:08:27.061Z,10.30
2017-11-06T15:10:54.521Z,10.40
2017-11-06T15:13:21.978Z,10.30
2017-11-06T15:15:49.442Z,10.40
2017-11-06T15:18:16.897Z,10.60
2017-11-06T15:20:44.383Z,10.70
2017-11-06T15:23:11.851Z,10.30
2017-11-06T15:25:39.313Z,10.00
2017-11-06T15:28:07.105Z,9.80
2017-11-06T15:30:34.925Z,9.40
2017-11-06T15:33:02.394Z,9.40
2017-11-06T15:35:29.867Z,9.40
2017-11-06T15:37:57.304Z,9.80
2017-11-06T15:40:24.729Z,9.60
2017-11-06T15:42:52.225Z,9.10
2017-11-06T15:45:19.685Z,8.90
2017-11-06T15:47:47.522Z,8.80
2017-11-06T15:50:15.078Z,8.80
2017-11-06T15:52:42.534Z,8.70
2017-11-06T15:55:09.990Z,8.80
2017-11-06T15:57:37.454Z,8.90
2017-11-06T16:00:04.921Z,8.90
2017-11-06T16:02:32.750Z,9.10
2017-11-06T16:05:00.211Z,9.10
2017-11-06T16:07:27.653Z,9.20
2017-11-06T16:09:55.097Z,9.60
2017-11-06T16:12:22.563Z,9.80
2017-11-06T16:14:50.006Z,10.00
2017-11-06T16:17:17.461Z,10.10
2017-11-06T16:19:44.910Z,9.80
2017-11-06T16:22:12.373Z,9.30
2017-11-06T16:24:39.813Z,9.00
2017-11-06T16:27:07.261Z,9.00
2017-11-06T16:29:34.709Z,8.80
2017-11-06T16:32:02.136Z,8.80
2017-11-06T16:34:30.007Z,8.70
2017-11-06T16:36:57.436Z,8.70
2017-11-06T16:39:24.926Z,8.70
2017-11-06T16:41:52.764Z,9.20
2017-11-06T16:44:20.345Z,9.20
2017-11-06T16:46:47.873Z,9.50
2017-11-06T16:49:15.338Z,9.40
2017-11-06T16:51:42.795Z,9.30
2017-11-06T16:54:10.622Z,9.00
2017-11-06T16:56:38.053Z,8.60
2017-11-06T16:59:06.258Z,8.30
2017-11-06T17:01:33.716Z,8.20
2017-11-06T17:04:01.138Z,8.10
2017-11-06T17:06:28.933Z,8.00
2017-11-06T17:08:56.426Z,8.00
2017-11-06T17:11:23.893Z,7.90
2017-11-06T17:13:51.728Z,8.00
2017-11-06T17:16:19.450Z,8.00
2017-11-06T17:18:46.911Z,8.10
2017-11-06T17:21:14.446Z,8.00
2017-11-06T17:23:41.889Z,7.90
2017-11-06T17:26:09.865Z,7.70
2017-11-06T17:28:37.320Z,7.80
2017-11-06T17:31:05.129Z,8.00
2017-11-06T17:33:32.597Z,8.00
2017-11-06T17:36:00.365Z,8.00
2017-11-06T17:38:27.798Z,8.00
2017-11-06T17:40:55.253Z,8.10
2017-11-06T17:43:23.005Z,8.10
2017-11-06T17:45:50.474Z,8.30
2017-11-06T17:48:17.917Z,8.40
2017-11-06T17:50:45.370Z,8.50
2017-11-06T17:53:13.806Z,8.50
2017-11-06T17:55:41.653Z,8.70
2017-11-06T17:58:09.114Z,8.70
2017-11-06T18:00:36.541Z,8.50
2017-11-06T18:03:03.974Z,8.40
2017-11-06T18:05:31.593Z,8.40
2017-11-06T18:07:59.042Z,8.30
2017-11-06T18:10:27.013Z,8.40
2017-11-06T18:12:54.869Z,8.40
2017-11-06T18:15:22.305Z,8.40
2017-11-06T18:17:49.775Z,8.30
2017-11-06T18:20:17.202Z,8.30
2017-11-06T18:22:44.961Z,8.30
2017-11-06T18:25:12.553Z,8.20
2017-11-06T18:27:40.098Z,8.10
2017-11-06T18:30:07.639Z,8.00
2017-11-06T18:32:35.082Z,8.00
2017-11-06T18:35:02.524Z,8.10
2017-11-06T18:37:29.979Z,8.00
2017-11-06T18:39:57.404Z,7.80
2017-11-06T18:42:24.854Z,7.90
2017-11-06T18:44:52.725Z,8.00
2017-11-06T18:47:20.180Z,8.00
2017-11-06T18:49:47.622Z,8.00
2017-11-06T18:52:15.642Z,7.90
2017-11-06T19:28:08.811Z,7.50
2017-11-06T19:33:48.118Z,7.50
2017-11-06T19:36:15.849Z,7.40
2017-11-06T19:38:43.981Z,7.70
2017-11-06T19:41:11.440Z,7.70
2017-11-06T19:43:44.527Z,7.60
2017-11-06T19:52:18.423Z,7.50
2017-11-06T19:54:49.304Z,7.20
2017-11-06T19:57:17.032Z,7.50
2017-11-06T19:59:44.601Z,8.10
2017-11-06T20:02:13.369Z,8.30
2017-11-06T20:04:49.351Z,7.90
2017-11-06T20:07:26.507Z,7.50
2017-11-06T20:09:55.136Z,7.50
2017-11-06T20:19:01.782Z,7.00
2017-11-06T20:21:29.487Z,7.00
2017-11-06T20:24:20.324Z,7.10
2017-11-06T20:26:50.446Z,7.10
2017-11-06T20:29:22.060Z,7.10
2017-11-06T20:31:49.748Z,7.10
2017-11-06T20:34:17.702Z,7.10
2017-11-06T20:55:07.291Z,6.90
2017-11-06T20:57:40.796Z,7.00
2017-11-06T21:00:26.496Z,6.80
2017-11-06T21:03:00.507Z,6.70
2017-11-06T21:05:32.677Z,6.70
2017-11-06T21:08:04.544Z,6.70
2017-11-06T21:10:44.685Z,6.80
2017-11-06T21:13:12.760Z,6.90
2017-11-06T21:19:01.682Z,6.90
2017-11-06T21:24:09.752Z,7.00
2017-11-06T21:26:51.440Z,7.00
2017-11-06T21:56:22.977Z,5.90
2017-11-06T21:58:50.423Z,5.90
2017-11-06T22:01:17.894Z,5.90
2017-11-06T22:03:45.400Z,5.80
2017-11-06T22:06:12.849Z,5.70
2017-11-06T22:11:44.960Z,5.60
2017-11-06T22:14:34.527Z,5.30
2017-11-06T22:17:14.861Z,5.60
2017-11-06T22:19:43.480Z,5.60
2017-11-06T22:24:50.127Z,5.60
2017-11-06T22:27:33.467Z,5.50
2017-11-06T22:33:15.077Z,5.20
2017-11-06T22:35:43.204Z,5.10
2017-11-06T22:38:10.638Z,5.10
2017-11-06T22:43:45.404Z,4.80
2017-11-06T22:49:20.056Z,4.80
2017-11-06T22:52:02.323Z,4.70
2017-11-06T22:57:43.075Z,4.70
2017-11-06T23:00:13.215Z,4.80
2017-11-06T23:02:40.682Z,4.80
2017-11-06T23:05:08.132Z,4.70
2017-11-06T23:07:35.593Z,4.60
2017-11-06T23:10:03.083Z,4.60
2017-11-06T23:12:30.560Z,4.60
2017-11-06T23:14:58.385Z,4.70
2017-11-06T23:17:25.828Z,4.70
2017-11-06T23:19:53.287Z,4.60
2017-11-06T23:22:20.717Z,4.60
2017-11-06T23:24:48.146Z,4.80
2017-11-06T23:27:15.993Z,4.90
2017-11-06T23:29:43.430Z,4.90
2017-11-06T23:32:10.864Z,4.90
2017-11-06T23:34:38.320Z,4.90
2017-11-06T23:37:05.754Z,4.90
2017-11-06T23:39:33.185Z,4.70
2017-11-06T23:42:01.185Z,4.80
2017-11-06T23:44:28.621Z,4.80
2017-11-06T23:46:56.081Z,4.90
2017-11-06T23:49:23.529Z,4.70
2017-11-06T23:51:50.965Z,4.50
2017-11-06T23:54:18.785Z,4.40
2017-11-06T23:56:46.257Z,4.40
2017-11-06T23:59:13.677Z,4.40
